DLH430 EDDF-KORD
Flight info
| Callsign | DLH430 |
|---|---|
| Flight time | N/A |
| Altitude | 36000 |
| Route | OBOKA3D/07C OBOKA Z28 DIBIR DCT BUDIP DCT GISEB DCT MIMVA DCT OTBED L60 PENIL M144 BAGSO DCT DOGAL/M080F370 NATA ALLRY/N0455F380 N484E ANATI DCT ROSVO Q802 MENKO Q824 FNT WYNDE3 |
| Aircraft | A343/H-SDE2E3FGHIJ4J5M1RWXY/LB1D1 |
Departure
| Time | 2026-05-01 15:09 |
|---|---|
| Airport | Frankfurt Main Airport (EDDF) |
Arrival
| Time | N/A |
|---|---|
| Airport | Chicago O'Hare International Airport (KORD) |
| Time | Latitude | Longitude | Altitude | Speed | Heading |
|---|---|---|---|---|---|
| 2026-05-01 14:38 | 50.04644 | 8.55944 | 360 ft | 0 kts | 340° |
| 2026-05-01 14:55 | 50.04643 | 8.55944 | 360 ft | 1 kts | 340° |
| 2026-05-01 14:55 | 50.04620 | 8.55957 | 366 ft | 4 kts | 339° |
| 2026-05-01 14:55 | 50.04599 | 8.55969 | 367 ft | 4 kts | 338° |
| 2026-05-01 14:56 | 50.04577 | 8.55990 | 364 ft | 4 kts | 304° |
| 2026-05-01 14:56 | 50.04570 | 8.56027 | 368 ft | 4 kts | 261° |
| 2026-05-01 14:56 | 50.04577 | 8.56066 | 368 ft | 4 kts | 248° |
| 2026-05-01 14:56 | 50.04581 | 8.56079 | 364 ft | 0 kts | 250° |
| 2026-05-01 15:00 | 50.04580 | 8.56078 | 360 ft | 0 kts | 250° |
| 2026-05-01 15:00 | 50.04580 | 8.56075 | 360 ft | 1 kts | 250° |
| 2026-05-01 15:00 | 50.04575 | 8.56056 | 360 ft | 3 kts | 250° |
| 2026-05-01 15:01 | 50.04566 | 8.56018 | 365 ft | 5 kts | 249° |
| 2026-05-01 15:01 | 50.04543 | 8.55967 | 368 ft | 7 kts | 224° |
| 2026-05-01 15:01 | 50.04498 | 8.55943 | 368 ft | 8 kts | 195° |
| 2026-05-01 15:01 | 50.04443 | 8.55919 | 367 ft | 9 kts | 195° |
| 2026-05-01 15:02 | 50.04395 | 8.55910 | 365 ft | 6 kts | 178° |
| 2026-05-01 15:02 | 50.04364 | 8.55920 | 364 ft | 8 kts | 163° |
| 2026-05-01 15:02 | 50.04277 | 8.55954 | 363 ft | 11 kts | 177° |
| 2026-05-01 15:02 | 50.04194 | 8.55924 | 358 ft | 13 kts | 179° |
| 2026-05-01 15:03 | 50.04104 | 8.55969 | 361 ft | 14 kts | 169° |
| 2026-05-01 15:03 | 50.04029 | 8.55881 | 360 ft | 16 kts | 251° |
| 2026-05-01 15:03 | 50.03991 | 8.55707 | 360 ft | 18 kts | 250° |
| 2026-05-01 15:03 | 50.03945 | 8.55516 | 363 ft | 19 kts | 249° |
| 2026-05-01 15:04 | 50.03898 | 8.55322 | 357 ft | 19 kts | 249° |
| 2026-05-01 15:04 | 50.03854 | 8.55143 | 360 ft | 18 kts | 249° |
| 2026-05-01 15:04 | 50.03811 | 8.54958 | 357 ft | 18 kts | 250° |
| 2026-05-01 15:04 | 50.03767 | 8.54773 | 355 ft | 18 kts | 250° |
| 2026-05-01 15:05 | 50.03722 | 8.54586 | 354 ft | 17 kts | 249° |
| 2026-05-01 15:05 | 50.03691 | 8.54458 | 355 ft | 10 kts | 250° |
| 2026-05-01 15:05 | 50.03682 | 8.54417 | 354 ft | 0 kts | 249° |
| 2026-05-01 15:06 | 50.03681 | 8.54416 | 354 ft | 0 kts | 249° |
| 2026-05-01 15:06 | 50.03680 | 8.54411 | 353 ft | 1 kts | 249° |
| 2026-05-01 15:06 | 50.03671 | 8.54374 | 353 ft | 6 kts | 249° |
| 2026-05-01 15:07 | 50.03638 | 8.54314 | 356 ft | 9 kts | 199° |
| 2026-05-01 15:07 | 50.03562 | 8.54339 | 350 ft | 13 kts | 157° |
| 2026-05-01 15:07 | 50.03503 | 8.54417 | 357 ft | 11 kts | 108° |
| 2026-05-01 15:07 | 50.03528 | 8.54567 | 356 ft | 22 kts | 69° |
| 2026-05-01 15:08 | 50.03636 | 8.55025 | 357 ft | 70 kts | 70° |
| 2026-05-01 15:08 | 50.03857 | 8.55957 | 362 ft | 112 kts | 70° |
| 2026-05-01 15:08 | 50.04173 | 8.57275 | 375 ft | 146 kts | 70° |
| 2026-05-01 15:08 | 50.04558 | 8.58828 | 657 ft | 156 kts | 69° |
| 2026-05-01 15:09 | 50.04993 | 8.60436 | 1031 ft | 169 kts | 70° |
| 2026-05-01 15:09 | 50.05379 | 8.62187 | 1504 ft | 172 kts | 75° |
| 2026-05-01 15:09 | 50.05748 | 8.64035 | 1806 ft | 187 kts | 76° |
| 2026-05-01 15:09 | 50.06172 | 8.66078 | 2020 ft | 213 kts | 75° |
| 2026-05-01 15:10 | 50.06675 | 8.68387 | 2275 ft | 235 kts | 73° |
| 2026-05-01 15:10 | 50.08867 | 8.72266 | 3470 ft | 256 kts | 28° |
| 2026-05-01 15:10 | 50.10521 | 8.73399 | 4061 ft | 265 kts | 26° |
| 2026-05-01 15:11 | 50.12252 | 8.74522 | 4622 ft | 274 kts | 25° |
| 2026-05-01 15:11 | 50.15834 | 8.76894 | 5978 ft | 283 kts | 25° |
| 2026-05-01 15:11 | 50.17626 | 8.78099 | 6711 ft | 285 kts | 25° |
| 2026-05-01 15:12 | 50.19450 | 8.79328 | 7398 ft | 287 kts | 25° |
| 2026-05-01 15:12 | 50.23145 | 8.81827 | 8739 ft | 291 kts | 25° |
| 2026-05-01 15:12 | 50.25109 | 8.82732 | 9358 ft | 298 kts | 7° |
| 2026-05-01 15:13 | 50.30017 | 8.77665 | 10726 ft | 316 kts | 282° |
| 2026-05-01 15:14 | 50.31415 | 8.70942 | 11175 ft | 346 kts | 299° |
| 2026-05-01 15:14 | 50.32746 | 8.67720 | 11420 ft | 360 kts | 304° |
| 2026-05-01 15:14 | 50.35735 | 8.61168 | 12185 ft | 376 kts | 304° |
| 2026-05-01 15:15 | 50.38662 | 8.54293 | 13251 ft | 383 kts | 302° |
| 2026-05-01 15:15 | 50.41510 | 8.47120 | 14259 ft | 392 kts | 301° |
| 2026-05-01 15:16 | 50.44355 | 8.39784 | 15307 ft | 396 kts | 301° |
| 2026-05-01 15:16 | 50.47228 | 8.32352 | 16323 ft | 401 kts | 301° |
| 2026-05-01 15:17 | 50.50152 | 8.24791 | 17253 ft | 408 kts | 301° |
| 2026-05-01 15:18 | 50.54615 | 8.13234 | 18763 ft | 416 kts | 301° |
| 2026-05-01 15:18 | 50.56110 | 8.09356 | 19333 ft | 414 kts | 301° |
| 2026-05-01 15:19 | 50.60615 | 7.97629 | 20572 ft | 423 kts | 301° |
| 2026-05-01 15:19 | 50.63693 | 7.89583 | 21349 ft | 430 kts | 301° |
| 2026-05-01 15:19 | 50.65219 | 7.85585 | 21941 ft | 427 kts | 301° |
| 2026-05-01 15:20 | 50.68293 | 7.77511 | 22852 ft | 429 kts | 301° |
| 2026-05-01 15:20 | 50.69829 | 7.73467 | 23290 ft | 430 kts | 301° |
| 2026-05-01 15:20 | 50.71369 | 7.69402 | 23651 ft | 433 kts | 301° |
| 2026-05-01 15:21 | 50.72918 | 7.65309 | 23976 ft | 436 kts | 301° |
| 2026-05-01 15:21 | 50.74473 | 7.61193 | 24276 ft | 438 kts | 301° |
| 2026-05-01 15:21 | 50.76042 | 7.57036 | 24521 ft | 442 kts | 301° |
| 2026-05-01 15:21 | 50.77616 | 7.52859 | 24890 ft | 442 kts | 301° |
| 2026-05-01 15:22 | 50.80767 | 7.44476 | 25341 ft | 450 kts | 301° |
| 2026-05-01 15:22 | 50.82364 | 7.40220 | 25790 ft | 448 kts | 301° |
| 2026-05-01 15:22 | 50.83952 | 7.35980 | 26124 ft | 449 kts | 301° |
| 2026-05-01 15:23 | 50.85545 | 7.31716 | 26405 ft | 451 kts | 301° |
| 2026-05-01 15:23 | 50.87147 | 7.27424 | 26604 ft | 455 kts | 301° |
| 2026-05-01 15:23 | 50.88759 | 7.23098 | 26945 ft | 455 kts | 301° |
| 2026-05-01 15:23 | 50.90361 | 7.18788 | 27273 ft | 456 kts | 301° |
| 2026-05-01 15:24 | 50.91978 | 7.14433 | 27567 ft | 457 kts | 301° |
| 2026-05-01 15:24 | 50.93587 | 7.10092 | 27865 ft | 458 kts | 301° |
| 2026-05-01 15:24 | 50.95203 | 7.05726 | 28118 ft | 460 kts | 301° |
| 2026-05-01 15:24 | 50.96823 | 7.01340 | 28352 ft | 462 kts | 301° |
| 2026-05-01 15:25 | 50.98449 | 6.96932 | 28598 ft | 464 kts | 301° |
| 2026-05-01 15:25 | 51.00080 | 6.92500 | 28803 ft | 466 kts | 301° |
| 2026-05-01 15:25 | 51.01716 | 6.88050 | 29077 ft | 467 kts | 300° |
| 2026-05-01 15:25 | 51.03353 | 6.83587 | 29377 ft | 467 kts | 300° |
| 2026-05-01 15:26 | 51.04991 | 6.79115 | 29595 ft | 469 kts | 300° |
| 2026-05-01 15:26 | 51.06630 | 6.74630 | 29879 ft | 470 kts | 300° |
| 2026-05-01 15:26 | 51.08272 | 6.70132 | 30097 ft | 471 kts | 300° |
| 2026-05-01 15:26 | 51.09919 | 6.65610 | 30328 ft | 473 kts | 300° |
| 2026-05-01 15:27 | 51.11567 | 6.61079 | 30489 ft | 474 kts | 300° |
| 2026-05-01 15:27 | 51.13217 | 6.56533 | 30745 ft | 474 kts | 300° |
| 2026-05-01 15:27 | 51.14861 | 6.51996 | 31046 ft | 472 kts | 300° |
| 2026-05-01 15:28 | 51.18123 | 6.42968 | 31687 ft | 467 kts | 300° |
| 2026-05-01 15:28 | 51.19738 | 6.38488 | 32003 ft | 465 kts | 299° |
| 2026-05-01 15:28 | 51.21344 | 6.34023 | 32294 ft | 463 kts | 299° |
| 2026-05-01 15:29 | 51.24534 | 6.25134 | 32791 ft | 462 kts | 299° |
| 2026-05-01 15:29 | 51.26126 | 6.20683 | 32944 ft | 462 kts | 299° |
| 2026-05-01 15:29 | 51.29322 | 6.11731 | 33188 ft | 466 kts | 299° |
| 2026-05-01 15:30 | 51.31984 | 6.04252 | 33606 ft | 464 kts | 298° |
| 2026-05-01 15:31 | 51.39333 | 5.85322 | 34447 ft | 463 kts | 311° |
| 2026-05-01 15:31 | 51.42949 | 5.79005 | 34703 ft | 462 kts | 312° |
| 2026-05-01 15:32 | 51.48129 | 5.70360 | 34962 ft | 464 kts | 313° |
| 2026-05-01 15:32 | 51.51886 | 5.64114 | 35198 ft | 464 kts | 313° |
| 2026-05-01 15:33 | 51.58568 | 5.52911 | 35620 ft | 462 kts | 311° |
| 2026-05-01 15:34 | 51.65184 | 5.41732 | 36008 ft | 461 kts | 312° |